sensor_id;sensor_type;location;lat;lon;timestamp;temperature;humidity
49042;DHT22;34859;51.608;11.462;2023-06-04T01:36:29;6.70;99.90
49042;DHT22;34859;51.608;11.462;2023-06-04T01:39:52;6.70;99.90
49042;DHT22;34859;51.608;11.462;2023-06-04T02:36:01;6.10;99.90
49042;DHT22;34859;51.608;11.462;2023-06-04T02:38:28;6.00;99.90
49042;DHT22;34859;51.608;11.462;2023-06-04T02:40:55;6.00;99.90
49042;DHT22;34859;51.608;11.462;2023-06-04T02:43:21;6.00;99.90
49042;DHT22;34859;51.608;11.462;2023-06-04T02:45:48;6.00;99.90
49042;DHT22;34859;51.608;11.462;2023-06-04T02:48:14;6.00;99.90
49042;DHT22;34859;51.608;11.462;2023-06-04T02:50:41;6.00;99.90
49042;DHT22;34859;51.608;11.462;2023-06-04T02:53:11;6.00;99.90
49042;DHT22;34859;51.608;11.462;2023-06-04T02:55:37;6.00;99.90
49042;DHT22;34859;51.608;11.462;2023-06-04T02:58:04;5.90;99.90
49042;DHT22;34859;51.608;11.462;2023-06-04T03:00:31;5.90;99.90
49042;DHT22;34859;51.608;11.462;2023-06-04T03:02:58;5.90;99.90
49042;DHT22;34859;51.608;11.462;2023-06-04T03:05:27;5.80;99.90
49042;DHT22;34859;51.608;11.462;2023-06-04T03:08:09;5.80;99.90
49042;DHT22;34859;51.608;11.462;2023-06-04T03:10:37;5.80;99.90
49042;DHT22;34859;51.608;11.462;2023-06-04T03:13:03;5.80;99.90
49042;DHT22;34859;51.608;11.462;2023-06-04T03:15:30;5.80;99.90
49042;DHT22;34859;51.608;11.462;2023-06-04T03:17:57;5.80;99.90
49042;DHT22;34859;51.608;11.462;2023-06-04T03:20:24;5.80;99.90
49042;DHT22;34859;51.608;11.462;2023-06-04T03:22:51;5.70;99.90
49042;DHT22;34859;51.608;11.462;2023-06-04T03:25:20;5.70;99.90
49042;DHT22;34859;51.608;11.462;2023-06-04T03:27:47;5.70;99.90
49042;DHT22;34859;51.608;11.462;2023-06-04T03:30:14;5.70;99.90
49042;DHT22;34859;51.608;11.462;2023-06-04T03:32:40;5.70;99.90
49042;DHT22;34859;51.608;11.462;2023-06-04T03:35:07;5.80;99.90
49042;DHT22;34859;51.608;11.462;2023-06-04T03:37:34;5.80;99.90
49042;DHT22;34859;51.608;11.462;2023-06-04T03:40:00;5.80;99.90
49042;DHT22;34859;51.608;11.462;2023-06-04T03:42:28;5.80;99.90
49042;DHT22;34859;51.608;11.462;2023-06-04T03:44:54;5.80;99.90
49042;DHT22;34859;51.608;11.462;2023-06-04T03:47:23;5.80;99.90
49042;DHT22;34859;51.608;11.462;2023-06-04T03:49:50;5.70;99.90
49042;DHT22;34859;51.608;11.462;2023-06-04T03:52:17;5.80;99.90
49042;DHT22;34859;51.608;11.462;2023-06-04T03:54:43;5.80;99.90
49042;DHT22;34859;51.608;11.462;2023-06-04T03:57:10;5.80;99.90
49042;DHT22;34859;51.608;11.462;2023-06-04T03:59:37;5.80;99.90
49042;DHT22;34859;51.608;11.462;2023-06-04T04:02:03;5.80;99.90
49042;DHT22;34859;51.608;11.462;2023-06-04T04:04:31;5.80;99.90
49042;DHT22;34859;51.608;11.462;2023-06-04T04:06:58;5.80;99.90
49042;DHT22;34859;51.608;11.462;2023-06-04T04:09:30;5.90;99.90
49042;DHT22;34859;51.608;11.462;2023-06-04T04:11:57;6.00;99.90
49042;DHT22;34859;51.608;11.462;2023-06-04T04:14:43;6.00;99.90
49042;DHT22;34859;51.608;11.462;2023-06-04T04:17:30;6.00;99.90
49042;DHT22;34859;51.608;11.462;2023-06-04T04:20:16;6.10;99.90
49042;DHT22;34859;51.608;11.462;2023-06-04T04:23:03;6.20;99.90
49042;DHT22;34859;51.608;11.462;2023-06-04T04:25:49;6.30;99.90
49042;DHT22;34859;51.608;11.462;2023-06-04T04:28:20;6.40;99.90
49042;DHT22;34859;51.608;11.462;2023-06-04T04:30:47;6.40;99.90
49042;DHT22;34859;51.608;11.462;2023-06-04T04:33:14;6.40;99.90
49042;DHT22;34859;51.608;11.462;2023-06-04T04:35:44;6.50;99.90
49042;DHT22;34859;51.608;11.462;2023-06-04T04:38:11;6.60;99.90
49042;DHT22;34859;51.608;11.462;2023-06-04T04:40:39;6.60;99.90
49042;DHT22;34859;51.608;11.462;2023-06-04T04:43:07;6.70;99.90
49042;DHT22;34859;51.608;11.462;2023-06-04T04:45:33;6.80;99.90
49042;DHT22;34859;51.608;11.462;2023-06-04T04:48:00;6.90;99.90
49042;DHT22;34859;51.608;11.462;2023-06-04T04:50:27;7.00;99.90
49042;DHT22;34859;51.608;11.462;2023-06-04T04:52:54;7.10;99.90
49042;DHT22;34859;51.608;11.462;2023-06-04T04:55:27;7.10;99.90
49042;DHT22;34859;51.608;11.462;2023-06-04T04:57:53;7.20;99.90
49042;DHT22;34859;51.608;11.462;2023-06-04T05:00:20;7.30;99.90
49042;DHT22;34859;51.608;11.462;2023-06-04T05:02:47;7.40;99.90
49042;DHT22;34859;51.608;11.462;2023-06-04T05:05:13;7.50;99.90
49042;DHT22;34859;51.608;11.462;2023-06-04T05:07:40;7.60;99.90
49042;DHT22;34859;51.608;11.462;2023-06-04T05:10:10;7.70;99.90
49042;DHT22;34859;51.608;11.462;2023-06-04T05:12:37;7.80;99.90
49042;DHT22;34859;51.608;11.462;2023-06-04T05:15:03;7.90;99.90
49042;DHT22;34859;51.608;11.462;2023-06-04T05:17:30;7.90;99.90
49042;DHT22;34859;51.608;11.462;2023-06-04T05:19:57;8.00;99.90
49042;DHT22;34859;51.608;11.462;2023-06-04T05:22:29;8.10;99.90
49042;DHT22;34859;51.608;11.462;2023-06-04T05:24:57;8.20;99.90
49042;DHT22;34859;51.608;11.462;2023-06-04T05:27:25;8.30;99.90
49042;DHT22;34859;51.608;11.462;2023-06-04T05:29:52;8.50;99.90
49042;DHT22;34859;51.608;11.462;2023-06-04T05:32:18;8.50;99.90
49042;DHT22;34859;51.608;11.462;2023-06-04T05:34:48;8.60;99.90
49042;DHT22;34859;51.608;11.462;2023-06-04T05:37:15;8.80;99.90
49042;DHT22;34859;51.608;11.462;2023-06-04T05:39:44;8.80;99.90
49042;DHT22;34859;51.608;11.462;2023-06-04T05:42:11;9.00;99.90
49042;DHT22;34859;51.608;11.462;2023-06-04T05:44:37;9.10;99.90
49042;DHT22;34859;51.608;11.462;2023-06-04T05:47:04;9.20;99.90
49042;DHT22;34859;51.608;11.462;2023-06-04T05:49:31;9.30;99.90
49042;DHT22;34859;51.608;11.462;2023-06-04T05:51:59;9.40;99.90
49042;DHT22;34859;51.608;11.462;2023-06-04T05:54:28;9.60;99.90
49042;DHT22;34859;51.608;11.462;2023-06-04T05:56:54;9.70;99.90
49042;DHT22;34859;51.608;11.462;2023-06-04T05:59:21;9.80;99.90
49042;DHT22;34859;51.608;11.462;2023-06-04T06:01:48;10.00;99.90
49042;DHT22;34859;51.608;11.462;2023-06-04T06:04:15;10.10;99.90
49042;DHT22;34859;51.608;11.462;2023-06-04T06:06:44;10.20;99.90
49042;DHT22;34859;51.608;11.462;2023-06-04T06:09:12;10.40;99.90
49042;DHT22;34859;51.608;11.462;2023-06-04T06:11:39;10.40;99.90
49042;DHT22;34859;51.608;11.462;2023-06-04T06:14:07;10.50;99.90
49042;DHT22;34859;51.608;11.462;2023-06-04T06:16:33;10.60;99.90
49042;DHT22;34859;51.608;11.462;2023-06-04T06:19:00;10.70;99.90
49042;DHT22;34859;51.608;11.462;2023-06-04T06:21:27;10.80;99.90
49042;DHT22;34859;51.608;11.462;2023-06-04T06:23:54;11.00;99.90
49042;DHT22;34859;51.608;11.462;2023-06-04T06:26:20;11.10;99.90
49042;DHT22;34859;51.608;11.462;2023-06-04T06:32:02;11.50;99.90
49042;DHT22;34859;51.608;11.462;2023-06-04T06:35:17;11.70;99.90
49042;DHT22;34859;51.608;11.462;2023-06-04T06:37:56;11.90;99.90
49042;DHT22;34859;51.608;11.462;2023-06-04T06:40:32;12.00;99.90
49042;DHT22;34859;51.608;11.462;2023-06-04T06:43:04;12.10;99.90
49042;DHT22;34859;51.608;11.462;2023-06-04T06:45:31;12.20;99.90
49042;DHT22;34859;51.608;11.462;2023-06-04T06:47:57;12.50;99.90
49042;DHT22;34859;51.608;11.462;2023-06-04T06:50:23;12.60;99.90
49042;DHT22;34859;51.608;11.462;2023-06-04T06:52:49;12.80;99.90
49042;DHT22;34859;51.608;11.462;2023-06-04T06:55:17;13.00;99.90
49042;DHT22;34859;51.608;11.462;2023-06-04T06:57:43;13.20;99.90
49042;DHT22;34859;51.608;11.462;2023-06-04T07:00:09;13.30;99.90
49042;DHT22;34859;51.608;11.462;2023-06-04T07:02:34;13.30;99.90
49042;DHT22;34859;51.608;11.462;2023-06-04T07:05:00;13.30;99.90
49042;DHT22;34859;51.608;11.462;2023-06-04T07:07:27;13.40;99.90
49042;DHT22;34859;51.608;11.462;2023-06-04T07:09:53;13.50;99.90
49042;DHT22;34859;51.608;11.462;2023-06-04T07:12:19;13.70;99.90
49042;DHT22;34859;51.608;11.462;2023-06-04T07:14:45;13.70;99.90
49042;DHT22;34859;51.608;11.462;2023-06-04T07:17:30;13.80;99.90
49042;DHT22;34859;51.608;11.462;2023-06-04T07:19:58;13.80;99.90
49042;DHT22;34859;51.608;11.462;2023-06-04T07:22:24;13.90;99.90
49042;DHT22;34859;51.608;11.462;2023-06-04T07:24:50;14.00;99.90
49042;DHT22;34859;51.608;11.462;2023-06-04T07:27:17;14.10;99.90
49042;DHT22;34859;51.608;11.462;2023-06-04T07:29:43;14.20;99.90
49042;DHT22;34859;51.608;11.462;2023-06-04T07:32:10;14.30;99.90
49042;DHT22;34859;51.608;11.462;2023-06-04T07:34:40;14.50;99.90
49042;DHT22;34859;51.608;11.462;2023-06-04T07:37:07;14.70;99.90
49042;DHT22;34859;51.608;11.462;2023-06-04T07:39:35;14.70;99.90
49042;DHT22;34859;51.608;11.462;2023-06-04T07:42:00;14.90;99.90
49042;DHT22;34859;51.608;11.462;2023-06-04T07:44:27;14.90;99.90
49042;DHT22;34859;51.608;11.462;2023-06-04T07:46:53;15.20;99.90
49042;DHT22;34859;51.608;11.462;2023-06-04T07:49:19;15.30;99.90
49042;DHT22;34859;51.608;11.462;2023-06-04T07:51:47;15.50;99.50
49042;DHT22;34859;51.608;11.462;2023-06-04T07:54:13;15.50;99.90
49042;DHT22;34859;51.608;11.462;2023-06-04T07:56:39;15.60;98.80
49042;DHT22;34859;51.608;11.462;2023-06-04T07:59:10;15.80;98.40
49042;DHT22;34859;51.608;11.462;2023-06-04T08:01:37;15.80;99.90
49042;DHT22;34859;51.608;11.462;2023-06-04T08:04:22;16.00;98.20
49042;DHT22;34859;51.608;11.462;2023-06-04T08:06:48;16.10;98.60
49042;DHT22;34859;51.608;11.462;2023-06-04T08:09:15;16.30;98.20
49042;DHT22;34859;51.608;11.462;2023-06-04T08:11:41;16.40;98.10
49042;DHT22;34859;51.608;11.462;2023-06-04T08:14:10;16.50;95.70
49042;DHT22;34859;51.608;11.462;2023-06-04T08:16:37;16.40;96.20
49042;DHT22;34859;51.608;11.462;2023-06-04T08:19:02;16.40;94.50
49042;DHT22;34859;51.608;11.462;2023-06-04T08:21:28;16.60;95.30
49042;DHT22;34859;51.608;11.462;2023-06-04T08:23:54;16.80;94.70
49042;DHT22;34859;51.608;11.462;2023-06-04T08:26:19;16.90;94.70
49042;DHT22;34859;51.608;11.462;2023-06-04T08:28:47;17.00;94.20
49042;DHT22;34859;51.608;11.462;2023-06-04T08:31:13;17.10;94.50
49042;DHT22;34859;51.608;11.462;2023-06-04T08:33:39;17.30;94.00
49042;DHT22;34859;51.608;11.462;2023-06-04T08:36:05;17.40;94.50
49042;DHT22;34859;51.608;11.462;2023-06-04T08:38:30;17.50;92.60
49042;DHT22;34859;51.608;11.462;2023-06-04T08:40:58;17.50;91.30
49042;DHT22;34859;51.608;11.462;2023-06-04T08:43:28;17.60;91.90
49042;DHT22;34859;51.608;11.462;2023-06-04T08:45:57;17.70;90.30
49042;DHT22;34859;51.608;11.462;2023-06-04T08:48:24;17.80;91.80
49042;DHT22;34859;51.608;11.462;2023-06-04T08:50:50;17.90;90.10
49042;DHT22;34859;51.608;11.462;2023-06-04T08:53:17;17.90;87.30
49042;DHT22;34859;51.608;11.462;2023-06-04T08:55:43;17.80;83.70
49042;DHT22;34859;51.608;11.462;2023-06-04T08:58:09;17.70;85.30
49042;DHT22;34859;51.608;11.462;2023-06-04T09:00:37;17.90;88.70
49042;DHT22;34859;51.608;11.462;2023-06-04T09:03:02;18.10;87.90
49042;DHT22;34859;51.608;11.462;2023-06-04T09:05:31;18.20;87.40
49042;DHT22;34859;51.608;11.462;2023-06-04T09:08:00;18.40;85.60
49042;DHT22;34859;51.608;11.462;2023-06-04T09:10:27;18.40;87.30
49042;DHT22;34859;51.608;11.462;2023-06-04T09:12:54;18.70;85.50
49042;DHT22;34859;51.608;11.462;2023-06-04T09:15:22;18.70;84.00
49042;DHT22;34859;51.608;11.462;2023-06-04T09:17:48;18.70;84.80
49042;DHT22;34859;51.608;11.462;2023-06-04T09:20:22;18.80;83.00
49042;DHT22;34859;51.608;11.462;2023-06-04T09:22:48;18.90;83.90
49042;DHT22;34859;51.608;11.462;2023-06-04T09:25:27;18.90;83.40
49042;DHT22;34859;51.608;11.462;2023-06-04T09:27:57;19.10;87.30
49042;DHT22;34859;51.608;11.462;2023-06-04T09:30:31;19.30;80.30
49042;DHT22;34859;51.608;11.462;2023-06-04T09:33:05;19.40;80.80
49042;DHT22;34859;51.608;11.462;2023-06-04T09:35:31;19.30;81.60
49042;DHT22;34859;51.608;11.462;2023-06-04T09:37:57;19.30;80.30
49042;DHT22;34859;51.608;11.462;2023-06-04T09:40:23;19.40;80.90
49042;DHT22;34859;51.608;11.462;2023-06-04T09:42:49;19.50;79.90
49042;DHT22;34859;51.608;11.462;2023-06-04T09:45:26;19.50;79.80
49042;DHT22;34859;51.608;11.462;2023-06-04T09:47:52;19.70;80.10
49042;DHT22;34859;51.608;11.462;2023-06-04T09:50:17;19.80;79.80
49042;DHT22;34859;51.608;11.462;2023-06-04T09:52:50;19.80;78.20
49042;DHT22;34859;51.608;11.462;2023-06-04T09:55:17;19.90;78.50
49042;DHT22;34859;51.608;11.462;2023-06-04T09:57:51;20.00;80.70
49042;DHT22;34859;51.608;11.462;2023-06-04T10:00:18;20.00;78.20
49042;DHT22;34859;51.608;11.462;2023-06-04T10:02:44;19.90;76.50
49042;DHT22;34859;51.608;11.462;2023-06-04T10:05:11;20.00;80.30
49042;DHT22;34859;51.608;11.462;2023-06-04T10:07:40;20.10;78.80
49042;DHT22;34859;51.608;11.462;2023-06-04T10:10:08;20.00;74.40
49042;DHT22;34859;51.608;11.462;2023-06-04T10:12:34;20.00;76.40
49042;DHT22;34859;51.608;11.462;2023-06-04T10:15:05;20.00;73.60
49042;DHT22;34859;51.608;11.462;2023-06-04T10:17:31;20.10;79.20
49042;DHT22;34859;51.608;11.462;2023-06-04T10:19:58;20.20;77.40
49042;DHT22;34859;51.608;11.462;2023-06-04T10:22:25;20.20;78.60
49042;DHT22;34859;51.608;11.462;2023-06-04T10:24:50;20.20;75.10
49042;DHT22;34859;51.608;11.462;2023-06-04T10:27:17;20.30;74.70
49042;DHT22;34859;51.608;11.462;2023-06-04T10:29:43;20.50;80.00
49042;DHT22;34859;51.608;11.462;2023-06-04T10:32:08;20.40;77.70
49042;DHT22;34859;51.608;11.462;2023-06-04T10:34:34;20.60;77.60
49042;DHT22;34859;51.608;11.462;2023-06-04T21:44:58;10.70;99.90
49042;DHT22;34859;51.608;11.462;2023-06-04T21:48:45;10.50;99.90
49042;DHT22;34859;51.608;11.462;2023-06-04T21:52:46;10.30;99.90
49042;DHT22;34859;51.608;11.462;2023-06-04T21:56:50;10.40;99.90
49042;DHT22;34859;51.608;11.462;2023-06-04T22:00:49;10.50;99.90
49042;DHT22;34859;51.608;11.462;2023-06-04T22:04:20;10.30;99.90
49042;DHT22;34859;51.608;11.462;2023-06-04T22:07:47;10.20;99.90
49042;DHT22;34859;51.608;11.462;2023-06-04T22:11:36;10.30;99.90
49042;DHT22;34859;51.608;11.462;2023-06-04T22:15:14;10.30;99.90
49042;DHT22;34859;51.608;11.462;2023-06-04T22:18:34;10.10;99.90
49042;DHT22;34859;51.608;11.462;2023-06-04T22:22:07;10.20;99.90
49042;DHT22;34859;51.608;11.462;2023-06-04T22:25:50;10.10;99.90
49042;DHT22;34859;51.608;11.462;2023-06-04T22:29:31;10.00;99.90
49042;DHT22;34859;51.608;11.462;2023-06-04T22:32:59;10.00;99.90
49042;DHT22;34859;51.608;11.462;2023-06-04T22:36:27;10.00;99.90
49042;DHT22;34859;51.608;11.462;2023-06-04T22:39:48;10.00;99.90
49042;DHT22;34859;51.608;11.462;2023-06-04T22:43:26;9.90;99.90
49042;DHT22;34859;51.608;11.462;2023-06-04T22:46:57;9.90;99.90
49042;DHT22;34859;51.608;11.462;2023-06-04T22:50:25;9.90;99.90
49042;DHT22;34859;51.608;11.462;2023-06-04T22:53:25;9.80;99.90
49042;DHT22;34859;51.608;11.462;2023-06-04T22:55:56;9.90;99.90
49042;DHT22;34859;51.608;11.462;2023-06-04T22:58:21;9.80;99.90
49042;DHT22;34859;51.608;11.462;2023-06-04T23:00:47;9.90;99.90
49042;DHT22;34859;51.608;11.462;2023-06-04T23:03:17;10.00;99.90
49042;DHT22;34859;51.608;11.462;2023-06-04T23:05:43;9.80;99.90
49042;DHT22;34859;51.608;11.462;2023-06-04T23:08:09;9.80;99.90
49042;DHT22;34859;51.608;11.462;2023-06-04T23:10:34;9.60;99.90
49042;DHT22;34859;51.608;11.462;2023-06-04T23:13:00;9.60;99.90
49042;DHT22;34859;51.608;11.462;2023-06-04T23:15:27;9.60;99.90
49042;DHT22;34859;51.608;11.462;2023-06-04T23:17:53;9.60;99.90
49042;DHT22;34859;51.608;11.462;2023-06-04T23:20:19;9.50;99.90
49042;DHT22;34859;51.608;11.462;2023-06-04T23:22:44;9.70;99.90
49042;DHT22;34859;51.608;11.462;2023-06-04T23:25:10;9.70;99.90
49042;DHT22;34859;51.608;11.462;2023-06-04T23:27:37;9.70;99.90
49042;DHT22;34859;51.608;11.462;2023-06-04T23:30:09;9.70;99.90
49042;DHT22;34859;51.608;11.462;2023-06-04T23:32:38;9.60;99.90
49042;DHT22;34859;51.608;11.462;2023-06-04T23:35:04;9.70;99.90
49042;DHT22;34859;51.608;11.462;2023-06-04T23:37:30;9.60;99.90
49042;DHT22;34859;51.608;11.462;2023-06-04T23:39:56;9.60;99.90
49042;DHT22;34859;51.608;11.462;2023-06-04T23:42:22;9.60;99.90
49042;DHT22;34859;51.608;11.462;2023-06-04T23:44:48;9.60;99.90
49042;DHT22;34859;51.608;11.462;2023-06-04T23:47:13;9.50;99.90
49042;DHT22;34859;51.608;11.462;2023-06-04T23:49:39;9.50;99.90
49042;DHT22;34859;51.608;11.462;2023-06-04T23:52:11;9.50;99.90
49042;DHT22;34859;51.608;11.462;2023-06-04T23:54:37;9.50;99.90
49042;DHT22;34859;51.608;11.462;2023-06-04T23:57:03;9.50;99.90
49042;DHT22;34859;51.608;11.462;2023-06-04T23:59:29;9.40;99.90
